Elmore, Ohio
Current Conditions -  °F | °C
As of 1:53 AM on Friday 28 Nov 2014 (Local Time) from KTDZ Reporting Station
Clear Clear  
Wind Chill:   Ceiling: Unl
Heat Index: 19°   Visibility: 10mi
Dew Point: 12°   Wind: 8mph
Humidity: 74%   Direction: 310°NW
Pressure: 30.34"   Gusts: NA
Location:  41.48°N, 83.3°W
Report Text: KTDZ 280653Z AUTO 31007KT 10SM CLR M07/M11 A3034 RMK AO2 SLP281 T10721111 TSNO
Loading
Personal Weather Stations






























Interactive Weather Map New forecast layout! Learn more

10-Day Weather Forecast

Advertisements
Track Severe Weather on mobile